Time;durP1;ratioP1;P1;durP2;ratioP2;P2;SDS_P1;SDS_P2;PMS_P1;PMS_P2;Temp;Humidity;BMP_temperature;BMP_pressure;BME280_temperature;BME280_humidity;BME280_pressure;Samples;Min_cycle;Max_cycle;Signal;HPM_P1;HPM_P2
2021/12/27 00:02:18;;;;;;;32.63;29.77;;;;;;;;;;5152834;27;20190;-93
2021/12/27 00:04:45;;;;;;;34.67;31.45;;;;;;;;;;5152896;27;20228;-94
2021/12/27 00:07:14;;;;;;;33.15;30.30;;;;;;;;;;5152729;27;20194;-95
2021/12/27 00:09:44;;;;;;;34.33;31.08;;;;;;;;;;5152504;27;20232;-94
2021/12/27 00:12:11;;;;;;;33.42;30.42;;;;;;;;;;5152693;27;20198;-94
2021/12/27 00:14:39;;;;;;;33.08;30.13;;;;;;;;;;5152749;27;20621;-95
2021/12/27 00:17:06;;;;;;;32.78;29.75;;;;;;;;;;5152788;27;20198;-95
2021/12/27 00:19:33;;;;;;;36.05;32.63;;;;;;;;;;5152459;27;20245;-95
2021/12/27 00:22:01;;;;;;;33.20;30.20;;;;;;;;;;5151700;27;20647;-95
2021/12/27 00:24:28;;;;;;;32.83;30.00;;;;;;;;;;5152321;27;20225;-94
2021/12/27 00:26:57;;;;;;;32.72;29.88;;;;;;;;;;5152526;27;20192;-94
2021/12/27 00:29:24;;;;;;;33.38;30.52;;;;;;;;;;5152571;27;20190;-95
2021/12/27 00:31:52;;;;;;;32.72;29.83;;;;;;;;;;5152547;27;20182;-94
2021/12/27 00:34:19;;;;;;;32.30;29.63;;;;;;;;;;5149141;27;20644;-95
2021/12/27 00:36:46;;;;;;;33.65;30.60;;;;;;;;;;5139012;27;20197;-95
2021/12/27 00:39:14;;;;;;;33.08;29.92;;;;;;;;;;5138327;27;20233;-95
2021/12/27 00:41:41;;;;;;;32.97;30.15;;;;;;;;;;5137492;27;20197;-95
2021/12/27 00:44:10;;;;;;;34.97;31.75;;;;;;;;;;5137295;27;20243;-94
2021/12/27 00:46:37;;;;;;;31.63;28.83;;;;;;;;;;5138754;27;20201;-94
2021/12/27 00:49:05;;;;;;;31.10;28.45;;;;;;;;;;5138078;27;20718;-95
2021/12/27 00:51:32;;;;;;;32.25;29.55;;;;;;;;;;5138238;27;20270;-94
2021/12/27 00:53:59;;;;;;;32.28;29.38;;;;;;;;;;5137763;27;20186;-95
2021/12/27 00:56:27;;;;;;;29.65;27.05;;;;;;;;;;5137925;27;20631;-96
2021/12/27 00:58:54;;;;;;;33.28;30.20;;;;;;;;;;5138057;27;20223;-95
2021/12/27 01:01:23;;;;;;;32.90;29.88;;;;;;;;;;5137933;27;20205;-96
2021/12/27 01:03:50;;;;;;;33.08;30.17;;;;;;;;;;5137936;27;20213;-95
2021/12/27 01:06:18;;;;;;;30.40;27.75;;;;;;;;;;5137673;27;20182;-93
2021/12/27 01:08:45;;;;;;;31.70;28.95;;;;;;;;;;5137688;27;20194;-95
2021/12/27 01:11:24;;;;;;;33.50;30.13;;;;;;;;;;5138138;27;20186;-95
2021/12/27 01:14:02;;;;;;;32.67;29.58;;;;;;;;;;5138016;27;20285;-95
2021/12/27 01:16:32;;;;;;;33.22;30.13;;;;;;;;;;5137783;27;20186;-94
2021/12/27 01:18:59;;;;;;;32.20;29.13;;;;;;;;;;5137849;27;20197;-95
2021/12/27 01:21:27;;;;;;;33.25;30.25;;;;;;;;;;5137713;27;20186;-94
2021/12/27 01:23:55;;;;;;;31.05;28.45;;;;;;;;;;5135953;27;20237;-94
2021/12/27 01:26:25;;;;;;;33.20;30.30;;;;;;;;;;5137626;27;20518;-95
2021/12/27 01:28:52;;;;;;;32.38;29.40;;;;;;;;;;5137470;27;20186;-94
2021/12/27 01:31:20;;;;;;;31.90;29.00;;;;;;;;;;5137394;27;20189;-95
2021/12/27 01:33:49;;;;;;;31.70;28.90;;;;;;;;;;5136192;27;20263;-93
2021/12/27 01:36:16;;;;;;;32.15;29.30;;;;;;;;;;5137891;27;20571;-95
2021/12/27 01:38:45;;;;;;;32.35;29.45;;;;;;;;;;5137103;27;20204;-95
2021/12/27 01:41:14;;;;;;;25.73;23.77;;;;;;;;;;5137047;27;20755;-95
2021/12/27 01:43:42;;;;;;;31.67;29.08;;;;;;;;;;5136733;27;20238;-95
2021/12/27 01:46:10;;;;;;;30.20;27.50;;;;;;;;;;5136968;27;20208;-95
2021/12/27 01:48:39;;;;;;;32.03;29.10;;;;;;;;;;5137098;27;20196;-96
2021/12/27 01:51:09;;;;;;;29.85;27.23;;;;;;;;;;5136793;27;20277;-95
2021/12/27 01:53:38;;;;;;;33.10;30.02;;;;;;;;;;5137209;27;20206;-95
2021/12/27 01:56:07;;;;;;;31.60;29.00;;;;;;;;;;5136599;27;20210;-95
2021/12/27 01:58:34;;;;;;;31.05;28.15;;;;;;;;;;5137068;27;20190;-94
2021/12/27 02:01:03;;;;;;;32.28;29.15;;;;;;;;;;5136927;27;20643;-96
2021/12/27 02:03:31;;;;;;;30.08;27.48;;;;;;;;;;5137028;27;20567;-96
2021/12/27 02:06:00;;;;;;;31.70;28.90;;;;;;;;;;5137501;27;20205;-96
2021/12/27 02:08:29;;;;;;;31.48;28.75;;;;;;;;;;5136748;27;20186;-96
2021/12/27 02:10:57;;;;;;;29.95;27.45;;;;;;;;;;5135761;27;20251;-95
2021/12/27 02:13:24;;;;;;;32.95;29.92;;;;;;;;;;5136793;27;20181;-95
2021/12/27 02:15:52;;;;;;;31.85;29.05;;;;;;;;;;5137320;27;20598;-94
2021/12/27 02:18:19;;;;;;;30.23;27.70;;;;;;;;;;5136772;27;20234;-95
2021/12/27 02:20:48;;;;;;;30.70;27.85;;;;;;;;;;5135459;27;20203;-95
2021/12/27 02:23:17;;;;;;;31.08;28.48;;;;;;;;;;5136424;27;20217;-94
2021/12/27 02:25:45;;;;;;;32.47;29.52;;;;;;;;;;5136444;27;20284;-94
2021/12/27 02:28:13;;;;;;;31.13;28.50;;;;;;;;;;5136349;27;20186;-95
2021/12/27 02:30:41;;;;;;;30.88;28.27;;;;;;;;;;5136395;27;20186;-95
2021/12/27 02:33:09;;;;;;;28.92;26.73;;;;;;;;;;5136071;27;20286;-95
2021/12/27 02:35:38;;;;;;;30.63;28.02;;;;;;;;;;5136029;27;20210;-96
2021/12/27 02:38:08;;;;;;;31.25;28.55;;;;;;;;;;5136275;27;20626;-95
2021/12/27 02:40:36;;;;;;;31.27;28.27;;;;;;;;;;5135851;27;20670;-96
2021/12/27 02:43:06;;;;;;;28.00;25.70;;;;;;;;;;5135035;27;20202;-96
2021/12/27 02:45:35;;;;;;;31.45;28.75;;;;;;;;;;5134845;27;20228;-95
2021/12/27 02:48:02;;;;;;;30.13;27.38;;;;;;;;;;5136784;27;20190;-95
2021/12/27 02:50:31;;;;;;;29.25;26.95;;;;;;;;;;5136222;27;20224;-94
2021/12/27 02:52:58;;;;;;;31.85;29.10;;;;;;;;;;5135888;27;20208;-95
2021/12/27 02:55:27;;;;;;;31.27;28.48;;;;;;;;;;5135341;27;20202;-95
2021/12/27 02:57:55;;;;;;;31.58;28.73;;;;;;;;;;5136486;27;20206;-95
2021/12/27 03:00:23;;;;;;;31.08;28.33;;;;;;;;;;5135477;27;20202;-95
2021/12/27 03:02:51;;;;;;;29.10;26.65;;;;;;;;;;5134657;27;20201;-96
2021/12/27 03:05:20;;;;;;;30.80;28.20;;;;;;;;;;5135624;27;20218;-95
2021/12/27 03:07:48;;;;;;;30.45;27.95;;;;;;;;;;5135675;27;20186;-95
2021/12/27 03:10:17;;;;;;;30.58;27.90;;;;;;;;;;5134813;27;20201;-95
2021/12/27 03:12:45;;;;;;;29.85;27.10;;;;;;;;;;5135450;27;20198;-94
2021/12/27 03:15:14;;;;;;;29.63;26.67;;;;;;;;;;5135268;27;20251;-95
2021/12/27 03:17:42;;;;;;;32.95;30.10;;;;;;;;;;5135633;27;20188;-94
2021/12/27 03:20:11;;;;;;;33.00;29.73;;;;;;;;;;5135263;27;20209;-94
2021/12/27 03:22:38;;;;;;;29.83;27.52;;;;;;;;;;5135170;27;20717;-95
2021/12/27 03:25:06;;;;;;;31.50;28.70;;;;;;;;;;5135051;28;20316;-96
2021/12/27 03:27:33;;;;;;;31.15;28.50;;;;;;;;;;5134040;28;20250;-96
2021/12/27 03:30:02;;;;;;;30.35;27.90;;;;;;;;;;5135135;28;20255;-96
2021/12/27 03:32:31;;;;;;;29.63;26.92;;;;;;;;;;5135145;27;20650;-96
2021/12/27 03:35:08;;;;;;;31.40;28.90;;;;;;;;;;5135299;28;20236;-95
2021/12/27 03:37:35;;;;;;;31.27;28.77;;;;;;;;;;5135082;28;20652;-96
2021/12/27 03:40:03;;;;;;;30.73;28.13;;;;;;;;;;5133931;28;20251;-96
2021/12/27 03:42:30;;;;;;;30.08;27.38;;;;;;;;;;5135338;28;20190;-95
2021/12/27 03:44:57;;;;;;;31.80;28.95;;;;;;;;;;5116998;28;20229;-95
2021/12/27 03:47:26;;;;;;;31.10;28.42;;;;;;;;;;5135241;28;20254;-96
2021/12/27 03:49:54;;;;;;;30.08;27.48;;;;;;;;;;5135196;28;20197;-96
2021/12/27 03:52:21;;;;;;;29.77;27.27;;;;;;;;;;5135737;28;20194;-94
2021/12/27 03:54:48;;;;;;;30.38;27.88;;;;;;;;;;5134821;27;20194;-95
2021/12/27 03:57:16;;;;;;;31.60;28.73;;;;;;;;;;5135409;28;20293;-96
2021/12/27 04:00:13;;;;;;;31.13;28.40;;;;;;;;;;5135048;28;20192;-95
2021/12/27 04:02:40;;;;;;;32.42;29.48;;;;;;;;;;5134706;28;20201;-96
2021/12/27 04:05:09;;;;;;;29.98;27.42;;;;;;;;;;5134581;28;20221;-95
2021/12/27 04:07:37;;;;;;;31.58;28.63;;;;;;;;;;5134738;28;20206;-95
2021/12/27 04:10:05;;;;;;;29.10;26.70;;;;;;;;;;5136058;27;20248;-96
2021/12/27 04:12:32;;;;;;;31.20;28.00;;;;;;;;;;5138702;27;20199;-95
2021/12/27 04:14:59;;;;;;;29.95;27.20;;;;;;;;;;5138945;27;20589;-95
2021/12/27 04:17:27;;;;;;;29.15;26.83;;;;;;;;;;5138535;27;20202;-95
2021/12/27 04:19:56;;;;;;;31.45;28.65;;;;;;;;;;5137851;27;20549;-95
2021/12/27 04:22:23;;;;;;;30.63;28.05;;;;;;;;;;5137830;27;20245;-95
2021/12/27 04:24:51;;;;;;;30.80;28.00;;;;;;;;;;5138305;27;20239;-94
2021/12/27 04:27:20;;;;;;;28.95;26.30;;;;;;;;;;5138757;27;20307;-95
2021/12/27 04:29:47;;;;;;;30.80;28.10;;;;;;;;;;5138324;27;20199;-95
2021/12/27 04:32:15;;;;;;;28.63;26.08;;;;;;;;;;5137520;27;20595;-96
2021/12/27 04:34:42;;;;;;;28.95;26.48;;;;;;;;;;5138259;27;20231;-96
2021/12/27 04:37:11;;;;;;;31.50;28.38;;;;;;;;;;5137513;27;20186;-94
2021/12/27 04:39:38;;;;;;;30.38;27.88;;;;;;;;;;5138980;27;20206;-95
2021/12/27 04:42:06;;;;;;;29.83;27.23;;;;;;;;;;5139152;27;20199;-95
2021/12/27 04:44:33;;;;;;;29.13;26.52;;;;;;;;;;5138423;27;20219;-95
2021/12/27 04:47:01;;;;;;;29.95;27.15;;;;;;;;;;5138516;27;20188;-94
2021/12/27 04:49:28;;;;;;;30.35;27.73;;;;;;;;;;5138494;27;20186;-94
2021/12/27 04:51:55;;;;;;;32.25;29.27;;;;;;;;;;5138344;27;20247;-94
2021/12/27 04:54:24;;;;;;;31.25;28.55;;;;;;;;;;5137769;27;20709;-95
2021/12/27 04:56:52;;;;;;;31.98;29.15;;;;;;;;;;5138219;27;20191;-94
2021/12/27 04:59:19;;;;;;;31.38;28.52;;;;;;;;;;5137759;27;20193;-94
2021/12/27 05:01:47;;;;;;;31.75;28.88;;;;;;;;;;5138174;27;20185;-94
2021/12/27 05:04:14;;;;;;;31.83;29.05;;;;;;;;;;5137546;27;20262;-94
2021/12/27 05:06:41;;;;;;;30.70;28.02;;;;;;;;;;5138075;27;20191;-94
2021/12/27 05:09:08;;;;;;;30.17;27.70;;;;;;;;;;5137868;27;20199;-94
2021/12/27 05:11:37;;;;;;;27.80;25.60;;;;;;;;;;5138105;27;20190;-93
2021/12/27 05:14:05;;;;;;;29.05;26.65;;;;;;;;;;5137661;27;20227;-94
2021/12/27 05:16:32;;;;;;;28.88;26.45;;;;;;;;;;5137628;27;20195;-94
2021/12/27 05:18:59;;;;;;;30.88;28.13;;;;;;;;;;5137700;27;20183;-95
2021/12/27 05:21:27;;;;;;;31.70;28.95;;;;;;;;;;5137277;27;20207;-95
2021/12/27 05:23:54;;;;;;;28.17;25.83;;;;;;;;;;5137246;27;20187;-94
2021/12/27 05:26:21;;;;;;;30.90;28.20;;;;;;;;;;5137597;27;20559;-94
2021/12/27 05:28:50;;;;;;;30.55;28.05;;;;;;;;;;5137454;27;20232;-94
2021/12/27 05:31:18;;;;;;;29.63;27.13;;;;;;;;;;5138077;27;20199;-94
2021/12/27 05:33:45;;;;;;;29.80;27.40;;;;;;;;;;5137251;27;20740;-94
2021/12/27 05:36:13;;;;;;;32.10;29.33;;;;;;;;;;5136365;27;20251;-95
2021/12/27 05:38:40;;;;;;;30.83;28.30;;;;;;;;;;5137033;27;20726;-95
2021/12/27 05:41:08;;;;;;;31.42;28.63;;;;;;;;;;5137136;27;20225;-94
2021/12/27 05:43:36;;;;;;;29.80;27.20;;;;;;;;;;5137241;27;20190;-94
2021/12/27 05:46:04;;;;;;;32.00;28.90;;;;;;;;;;5136076;27;20279;-94
2021/12/27 05:48:32;;;;;;;30.70;28.10;;;;;;;;;;5137296;27;20246;-93
2021/12/27 05:50:59;;;;;;;30.10;27.40;;;;;;;;;;5136113;27;20208;-94
2021/12/27 05:53:27;;;;;;;30.25;27.65;;;;;;;;;;5136500;27;20198;-94
2021/12/27 05:55:54;;;;;;;29.75;27.15;;;;;;;;;;5136814;27;20210;-95
2021/12/27 05:58:21;;;;;;;30.10;27.58;;;;;;;;;;5136049;27;20236;-94
2021/12/27 06:00:49;;;;;;;29.95;27.45;;;;;;;;;;5136954;27;20186;-94
2021/12/27 06:03:18;;;;;;;30.80;28.10;;;;;;;;;;5137187;27;20292;-95
2021/12/27 06:05:46;;;;;;;30.80;28.17;;;;;;;;;;5136929;27;20251;-93
2021/12/27 06:08:13;;;;;;;31.05;28.20;;;;;;;;;;5136402;27;20190;-94
2021/12/27 06:10:41;;;;;;;31.95;29.10;;;;;;;;;;5136382;27;20198;-94
2021/12/27 06:13:08;;;;;;;30.23;27.75;;;;;;;;;;5136663;27;20194;-93
2021/12/27 06:15:35;;;;;;;29.70;27.13;;;;;;;;;;5136244;27;20194;-94
2021/12/27 06:18:03;;;;;;;30.38;27.77;;;;;;;;;;5136641;27;20577;-94
2021/12/27 06:20:32;;;;;;;28.50;26.20;;;;;;;;;;5136776;27;20268;-94
2021/12/27 06:23:00;;;;;;;30.33;27.20;;;;;;;;;;5136241;27;20253;-94
2021/12/27 06:25:28;;;;;;;29.52;27.02;;;;;;;;;;5136127;27;20217;-93
2021/12/27 06:27:56;;;;;;;30.85;28.25;;;;;;;;;;5136352;27;20186;-94
2021/12/27 06:30:23;;;;;;;30.05;27.35;;;;;;;;;;5136782;27;20221;-93
2021/12/27 06:32:51;;;;;;;30.02;26.92;;;;;;;;;;5135777;27;20616;-94
2021/12/27 06:35:18;;;;;;;30.40;27.90;;;;;;;;;;5135757;27;20231;-94
2021/12/27 06:37:48;;;;;;;29.17;26.73;;;;;;;;;;5136192;27;20259;-95
2021/12/27 06:40:17;;;;;;;30.20;27.70;;;;;;;;;;5135918;27;20197;-94
2021/12/27 06:42:44;;;;;;;30.02;27.38;;;;;;;;;;5136206;27;20201;-94
2021/12/27 06:45:12;;;;;;;29.33;26.88;;;;;;;;;;5136122;27;20562;-94
2021/12/27 06:47:40;;;;;;;30.23;27.70;;;;;;;;;;5135802;27;20714;-94
2021/12/27 06:50:08;;;;;;;31.02;28.42;;;;;;;;;;5134955;27;20199;-94
2021/12/27 06:52:35;;;;;;;30.45;27.63;;;;;;;;;;5135772;27;20186;-93
2021/12/27 06:55:05;;;;;;;30.65;28.15;;;;;;;;;;5135775;27;20190;-94
2021/12/27 06:57:32;;;;;;;29.73;27.02;;;;;;;;;;5135887;27;20243;-94
2021/12/27 07:00:01;;;;;;;31.30;28.48;;;;;;;;;;5135849;27;20187;-94
2021/12/27 07:02:28;;;;;;;30.98;28.33;;;;;;;;;;5135540;27;20196;-93
2021/12/27 07:04:56;;;;;;;32.35;29.45;;;;;;;;;;5135772;27;20206;-94
2021/12/27 07:07:23;;;;;;;31.50;28.65;;;;;;;;;;5135847;27;20240;-94
2021/12/27 07:09:50;;;;;;;31.67;28.75;;;;;;;;;;5136194;27;20636;-94
2021/12/27 07:12:19;;;;;;;30.95;28.05;;;;;;;;;;5136040;27;20607;-95
2021/12/27 07:14:48;;;;;;;31.60;28.92;;;;;;;;;;5135753;27;20191;-96
2021/12/27 07:17:16;;;;;;;33.60;30.48;;;;;;;;;;5135230;27;20205;-95
2021/12/27 07:19:43;;;;;;;34.30;30.88;;;;;;;;;;5135932;27;20212;-95
2021/12/27 07:22:10;;;;;;;32.42;29.50;;;;;;;;;;5135250;27;20221;-96
2021/12/27 07:24:38;;;;;;;33.90;31.10;;;;;;;;;;5135106;28;20193;-96
2021/12/27 07:27:05;;;;;;;32.55;29.80;;;;;;;;;;5135299;28;20218;-95
2021/12/27 07:29:34;;;;;;;33.20;30.17;;;;;;;;;;5134844;28;20603;-94
2021/12/27 07:32:02;;;;;;;33.08;30.10;;;;;;;;;;5135808;28;20203;-94
2021/12/27 07:34:29;;;;;;;31.02;28.38;;;;;;;;;;5135220;28;20226;-91
2021/12/27 07:36:57;;;;;;;32.97;30.00;;;;;;;;;;5135775;27;20183;-87
2021/12/27 07:39:25;;;;;;;33.38;30.20;;;;;;;;;;5134281;28;20198;-87
2021/12/27 07:41:52;;;;;;;34.72;31.15;;;;;;;;;;5135410;28;20239;-87
2021/12/27 07:44:20;;;;;;;33.03;29.77;;;;;;;;;;5135243;27;20528;-87
2021/12/27 07:46:49;;;;;;;33.42;30.17;;;;;;;;;;5139120;27;20612;-87
2021/12/27 07:49:17;;;;;;;32.88;29.65;;;;;;;;;;5139266;27;20208;-86
2021/12/27 07:51:45;;;;;;;33.70;30.65;;;;;;;;;;5139769;27;20252;-87
2021/12/27 07:54:13;;;;;;;33.45;30.63;;;;;;;;;;5138905;27;20186;-87
2021/12/27 07:56:40;;;;;;;32.78;29.88;;;;;;;;;;5138231;27;20182;-86
2021/12/27 07:59:09;;;;;;;34.35;31.00;;;;;;;;;;5138355;27;20191;-86
2021/12/27 08:01:38;;;;;;;34.85;31.73;;;;;;;;;;5135771;27;20208;-86
2021/12/27 08:04:08;;;;;;;34.40;31.42;;;;;;;;;;5136204;27;20540;-86
2021/12/27 08:06:36;;;;;;;32.60;29.30;;;;;;;;;;5138567;27;20227;-87
2021/12/27 08:09:04;;;;;;;32.22;29.10;;;;;;;;;;5138541;27;20198;-86
2021/12/27 08:11:32;;;;;;;31.50;28.60;;;;;;;;;;5138585;27;20203;-87
2021/12/27 08:13:59;;;;;;;31.65;28.95;;;;;;;;;;5138664;27;20195;-87
2021/12/27 08:16:27;;;;;;;31.45;28.55;;;;;;;;;;5138543;27;20231;-87
2021/12/27 08:18:55;;;;;;;31.67;28.77;;;;;;;;;;5138538;27;20191;-87
2021/12/27 08:21:24;;;;;;;29.67;27.23;;;;;;;;;;5138168;27;20221;-88
2021/12/27 08:23:52;;;;;;;33.03;30.05;;;;;;;;;;5138292;27;20191;-89
2021/12/27 08:26:20;;;;;;;32.50;29.45;;;;;;;;;;5138437;27;20215;-88
2021/12/27 08:28:48;;;;;;;31.17;28.58;;;;;;;;;;5138330;27;20190;-89
2021/12/27 08:31:16;;;;;;;31.20;28.30;;;;;;;;;;5138161;27;20258;-89
2021/12/27 08:33:43;;;;;;;31.40;28.52;;;;;;;;;;5138177;27;20600;-88
2021/12/27 08:36:10;;;;;;;31.25;28.65;;;;;;;;;;5138012;27;20282;-88
2021/12/27 08:38:39;;;;;;;31.23;28.42;;;;;;;;;;5138366;27;20193;-88
2021/12/27 08:41:07;;;;;;;30.05;27.55;;;;;;;;;;5138427;27;20251;-89
2021/12/27 08:43:34;;;;;;;29.73;27.30;;;;;;;;;;5138279;27;20236;-88
2021/12/27 08:46:01;;;;;;;30.05;27.48;;;;;;;;;;5137857;27;20275;-88
2021/12/27 08:48:29;;;;;;;38.08;34.63;;;;;;;;;;5138268;27;20235;-89
2021/12/27 08:50:56;;;;;;;33.28;30.25;;;;;;;;;;5137978;27;20190;-89
2021/12/27 08:53:24;;;;;;;31.95;29.02;;;;;;;;;;5137645;27;20635;-88
2021/12/27 08:55:53;;;;;;;32.10;29.30;;;;;;;;;;5137572;27;20194;-88
2021/12/27 08:58:20;;;;;;;34.25;31.23;;;;;;;;;;5137575;27;20232;-86
2021/12/27 09:00:47;;;;;;;42.15;37.75;;;;;;;;;;5137909;27;20183;-86
2021/12/27 09:03:15;;;;;;;33.42;30.52;;;;;;;;;;5137320;27;20198;-86
2021/12/27 09:05:43;;;;;;;41.95;37.80;;;;;;;;;;5137555;27;20215;-86
2021/12/27 09:08:11;;;;;;;36.80;33.20;;;;;;;;;;5137607;27;20534;-86
2021/12/27 09:10:38;;;;;;;36.40;33.05;;;;;;;;;;5136094;27;20203;-86
2021/12/27 09:13:07;;;;;;;34.60;31.45;;;;;;;;;;5137356;27;20516;-86
2021/12/27 09:15:34;;;;;;;33.17;30.33;;;;;;;;;;5137513;27;20198;-87
2021/12/27 09:18:02;;;;;;;37.45;33.95;;;;;;;;;;5137450;27;20186;-87
2021/12/27 09:20:29;;;;;;;34.08;31.27;;;;;;;;;;5137283;27;20198;-86
2021/12/27 09:22:57;;;;;;;35.45;32.55;;;;;;;;;;5137105;27;20193;-93
2021/12/27 09:25:25;;;;;;;31.92;29.33;;;;;;;;;;5137137;27;20191;-89
2021/12/27 09:27:52;;;;;;;31.13;28.65;;;;;;;;;;5137027;27;20214;-88
2021/12/27 09:30:21;;;;;;;33.13;30.33;;;;;;;;;;5137455;27;20582;-88
2021/12/27 09:32:50;;;;;;;28.48;26.17;;;;;;;;;;5135951;27;20553;-89
2021/12/27 09:35:18;;;;;;;28.75;26.40;;;;;;;;;;5136728;27;20239;-86
2021/12/27 09:37:46;;;;;;;28.30;26.30;;;;;;;;;;5134017;27;20262;-89
2021/12/27 09:40:13;;;;;;;31.95;29.60;;;;;;;;;;5137076;27;20232;-86
2021/12/27 09:42:41;;;;;;;27.92;25.73;;;;;;;;;;5137367;27;20191;-84
2021/12/27 09:45:09;;;;;;;29.42;26.90;;;;;;;;;;5136803;27;20281;-85
2021/12/27 09:47:40;;;;;;;29.70;27.50;;;;;;;;;;5136576;27;20214;-85
2021/12/27 09:50:08;;;;;;;29.70;27.23;;;;;;;;;;5136302;27;20209;-83
2021/12/27 09:52:36;;;;;;;27.42;25.23;;;;;;;;;;5136461;27;20202;-85
2021/12/27 09:55:04;;;;;;;27.27;25.40;;;;;;;;;;5135715;27;20188;-85
2021/12/27 09:57:33;;;;;;;24.02;22.63;;;;;;;;;;5135872;27;20233;-85
2021/12/27 10:00:00;;;;;;;26.83;24.92;;;;;;;;;;5136271;27;20590;-84
2021/12/27 10:02:27;;;;;;;26.60;24.80;;;;;;;;;;5136155;27;20535;-86
2021/12/27 10:04:56;;;;;;;27.30;25.40;;;;;;;;;;5136130;27;20191;-85
2021/12/27 10:07:24;;;;;;;26.25;24.38;;;;;;;;;;5133640;27;20302;-83
2021/12/27 10:09:55;;;;;;;23.95;22.50;;;;;;;;;;5115047;27;20193;-83
2021/12/27 10:12:23;;;;;;;25.85;24.13;;;;;;;;;;5114004;28;20253;-82
2021/12/27 10:14:56;;;;;;;26.23;24.30;;;;;;;;;;5116115;28;20193;-80
2021/12/27 10:17:23;;;;;;;27.65;25.63;;;;;;;;;;5115114;28;20191;-80
2021/12/27 10:19:51;;;;;;;25.80;24.10;;;;;;;;;;5115553;28;20207;-79
2021/12/27 10:22:21;;;;;;;25.98;24.25;;;;;;;;;;5115682;28;20222;-79
2021/12/27 10:24:50;;;;;;;25.83;24.10;;;;;;;;;;5115227;28;20244;-77
2021/12/27 10:27:19;;;;;;;25.58;23.88;;;;;;;;;;5115289;28;20207;-78
2021/12/27 10:29:47;;;;;;;25.17;23.45;;;;;;;;;;5129549;27;20203;-77
2021/12/27 10:32:16;;;;;;;24.70;23.02;;;;;;;;;;5135759;27;20202;-76
2021/12/27 10:34:44;;;;;;;24.13;22.52;;;;;;;;;;5135342;27;20659;-77
2021/12/27 10:37:14;;;;;;;24.85;23.30;;;;;;;;;;5135792;27;20682;-76
2021/12/27 10:39:47;;;;;;;23.15;21.73;;;;;;;;;;5116739;27;20207;-76
2021/12/27 10:42:15;;;;;;;23.90;22.25;;;;;;;;;;5115160;28;20192;-76
2021/12/27 10:44:43;;;;;;;24.02;22.40;;;;;;;;;;5115190;28;20185;-76
2021/12/27 10:47:25;;;;;;;24.38;22.83;;;;;;;;;;5114174;28;20233;-77
2021/12/27 10:49:53;;;;;;;24.75;23.15;;;;;;;;;;5112339;28;20195;-78
2021/12/27 10:52:20;;;;;;;23.95;22.35;;;;;;;;;;5114583;28;20211;-79
2021/12/27 10:55:01;;;;;;;24.75;23.10;;;;;;;;;;5112913;28;20252;-79
2021/12/27 10:57:28;;;;;;;23.48;22.00;;;;;;;;;;5113048;28;20593;-79
2021/12/27 11:00:14;;;;;;;25.85;23.73;;;;;;;;;;5112949;28;20249;-79
2021/12/27 11:02:42;;;;;;;23.20;21.70;;;;;;;;;;5112503;28;20669;-79
2021/12/27 11:05:12;;;;;;;23.98;22.58;;;;;;;;;;5113391;27;20538;-79
2021/12/27 11:07:41;;;;;;;23.42;22.02;;;;;;;;;;5131762;27;20218;-85
2021/12/27 11:10:10;;;;;;;23.15;21.70;;;;;;;;;;5113319;28;20183;-88
2021/12/27 11:12:37;;;;;;;23.42;21.83;;;;;;;;;;5113741;28;20232;-87
2021/12/27 11:15:11;;;;;;;22.50;21.20;;;;;;;;;;5112113;28;20200;-84
2021/12/27 11:17:41;;;;;;;23.95;22.45;;;;;;;;;;5112813;28;20218;-83
2021/12/27 11:20:11;;;;;;;23.88;22.20;;;;;;;;;;5113245;28;20224;-86
2021/12/27 11:22:41;;;;;;;22.15;20.77;;;;;;;;;;5113903;28;20187;-85
2021/12/27 11:25:22;;;;;;;21.95;20.65;;;;;;;;;;5113620;28;20265;-86
2021/12/27 11:27:51;;;;;;;22.50;21.08;;;;;;;;;;5113789;28;20223;-87
2021/12/27 11:30:24;;;;;;;22.65;21.25;;;;;;;;;;5113687;28;20264;-86
2021/12/27 11:33:03;;;;;;;22.05;20.75;;;;;;;;;;5113411;28;20280;-86
2021/12/27 11:35:36;;;;;;;23.27;21.75;;;;;;;;;;5073354;28;20209;-87
2021/12/27 11:38:05;;;;;;;22.92;21.63;;;;;;;;;;5072898;28;20203;-87
2021/12/27 11:40:46;;;;;;;21.35;20.13;;;;;;;;;;5073170;28;20206;-86
2021/12/27 11:43:15;;;;;;;21.95;20.65;;;;;;;;;;5072787;28;20193;-85
2021/12/27 11:45:46;;;;;;;21.83;20.52;;;;;;;;;;5073091;28;20220;-87
2021/12/27 11:48:15;;;;;;;22.05;20.63;;;;;;;;;;5073196;28;20288;-87
2021/12/27 11:51:02;;;;;;;21.90;20.60;;;;;;;;;;5073166;28;20597;-87
2021/12/27 11:53:32;;;;;;;22.95;21.65;;;;;;;;;;5072909;28;20185;-86
2021/12/27 11:56:03;;;;;;;22.45;21.25;;;;;;;;;;5071771;28;20234;-86
2021/12/27 11:58:35;;;;;;;23.02;21.50;;;;;;;;;;5072910;28;20295;-86
2021/12/27 12:01:02;;;;;;;22.08;20.88;;;;;;;;;;5072657;28;20193;-87
2021/12/27 12:03:40;;;;;;;22.35;20.95;;;;;;;;;;5073035;28;20193;-87
2021/12/27 12:06:07;;;;;;;21.90;20.60;;;;;;;;;;5072912;28;20700;-88
2021/12/27 12:08:50;;;;;;;21.40;20.10;;;;;;;;;;5072663;28;21030;-88
2021/12/27 12:11:19;;;;;;;21.92;20.58;;;;;;;;;;5072870;28;20188;-84
2021/12/27 12:13:47;;;;;;;23.23;21.83;;;;;;;;;;5071930;28;20262;-88
2021/12/27 12:16:16;;;;;;;24.05;22.42;;;;;;;;;;5071196;28;20209;-84
2021/12/27 12:18:44;;;;;;;21.35;20.15;;;;;;;;;;5071937;28;20553;-84
2021/12/27 12:21:29;;;;;;;24.08;22.40;;;;;;;;;;5071932;28;20225;-84
2021/12/27 12:23:57;;;;;;;23.95;22.45;;;;;;;;;;5065721;28;20257;-89
2021/12/27 12:26:26;;;;;;;22.33;21.02;;;;;;;;;;5072705;28;20229;-88
2021/12/27 12:28:59;;;;;;;23.70;22.20;;;;;;;;;;5072797;28;20189;-88
2021/12/27 12:31:29;;;;;;;24.15;22.65;;;;;;;;;;5074733;28;20185;-89
2021/12/27 12:34:08;;;;;;;22.92;21.58;;;;;;;;;;5091180;28;20759;-87
2021/12/27 12:36:45;;;;;;;23.05;21.55;;;;;;;;;;5116998;28;20241;-87
2021/12/27 12:39:12;;;;;;;21.63;20.35;;;;;;;;;;5116575;28;20192;-87
2021/12/27 12:41:41;;;;;;;24.45;22.85;;;;;;;;;;5116564;28;20190;-88
2021/12/27 12:44:09;;;;;;;24.63;22.92;;;;;;;;;;5116201;28;20214;-88
2021/12/27 12:46:40;;;;;;;23.17;21.67;;;;;;;;;;5116540;28;20197;-88
2021/12/27 12:49:08;;;;;;;21.77;20.48;;;;;;;;;;5116216;28;20218;-87
2021/12/27 12:51:40;;;;;;;22.45;21.05;;;;;;;;;;5116664;28;20192;-88
2021/12/27 12:54:09;;;;;;;24.33;22.65;;;;;;;;;;5116250;28;20286;-89
2021/12/27 12:56:38;;;;;;;27.15;24.95;;;;;;;;;;5116618;28;20195;-88
2021/12/27 12:59:18;;;;;;;25.02;23.50;;;;;;;;;;5116500;28;20654;-88
2021/12/27 13:01:54;;;;;;;21.23;19.83;;;;;;;;;;5116753;28;20200;-88
2021/12/27 13:04:21;;;;;;;22.02;20.73;;;;;;;;;;5116491;28;20192;-88
2021/12/27 13:06:49;;;;;;;21.92;20.73;;;;;;;;;;5116179;28;20211;-86
2021/12/27 13:09:16;;;;;;;22.20;20.80;;;;;;;;;;5116150;28;20205;-86
2021/12/27 13:11:43;;;;;;;23.30;21.90;;;;;;;;;;5115031;28;20188;-87
2021/12/27 13:14:12;;;;;;;20.30;19.17;;;;;;;;;;5114899;28;20208;-88
2021/12/27 13:16:39;;;;;;;23.30;21.80;;;;;;;;;;5116212;28;20647;-88
2021/12/27 13:19:08;;;;;;;21.95;20.65;;;;;;;;;;5116302;28;20242;-88
2021/12/27 13:21:42;;;;;;;23.10;21.80;;;;;;;;;;5116313;28;20217;-87
2021/12/27 13:24:09;;;;;;;23.13;21.83;;;;;;;;;;5116061;28;20210;-88
2021/12/27 13:26:37;;;;;;;23.30;22.00;;;;;;;;;;5115958;28;20185;-88
2021/12/27 13:29:04;;;;;;;22.45;21.15;;;;;;;;;;5114746;28;20586;-88
2021/12/27 13:31:33;;;;;;;24.08;22.48;;;;;;;;;;5115631;28;20671;-87
2021/12/27 13:34:04;;;;;;;22.00;20.50;;;;;;;;;;5115634;28;20236;-87
2021/12/27 13:36:33;;;;;;;22.47;21.07;;;;;;;;;;5115932;28;20607;-86
2021/12/27 13:39:01;;;;;;;23.33;21.67;;;;;;;;;;5115186;28;20467;-87
2021/12/27 13:41:29;;;;;;;22.92;21.48;;;;;;;;;;5115072;28;20200;-87
2021/12/27 13:43:58;;;;;;;22.00;20.55;;;;;;;;;;5115374;28;20186;-87
2021/12/27 13:46:27;;;;;;;21.65;20.35;;;;;;;;;;5115822;28;20199;-87
2021/12/27 13:48:56;;;;;;;22.60;21.15;;;;;;;;;;5097440;28;20270;-87
2021/12/27 13:51:24;;;;;;;20.90;19.70;;;;;;;;;;5115672;28;20184;-86
2021/12/27 13:53:59;;;;;;;23.20;21.80;;;;;;;;;;5114118;28;20204;-87
2021/12/27 13:56:27;;;;;;;22.08;20.58;;;;;;;;;;5115566;28;20192;-87
2021/12/27 13:58:54;;;;;;;20.83;19.52;;;;;;;;;;5115522;28;20201;-88
2021/12/27 14:01:22;;;;;;;22.75;21.25;;;;;;;;;;5114029;28;20793;-87
2021/12/27 14:03:50;;;;;;;23.07;21.60;;;;;;;;;;5114953;28;20196;-88
2021/12/27 14:06:21;;;;;;;21.53;20.23;;;;;;;;;;5115382;28;20845;-87
2021/12/27 14:08:56;;;;;;;20.50;19.33;;;;;;;;;;5115019;28;20513;-88
2021/12/27 14:11:24;;;;;;;23.10;21.60;;;;;;;;;;5114847;28;20450;-88
2021/12/27 14:13:53;;;;;;;21.95;20.55;;;;;;;;;;5114895;28;20220;-86
2021/12/27 14:16:21;;;;;;;20.95;19.65;;;;;;;;;;5115032;28;20227;-87
2021/12/27 14:19:06;;;;;;;22.98;21.58;;;;;;;;;;5115015;28;20193;-87
2021/12/27 14:21:36;;;;;;;22.67;21.33;;;;;;;;;;5114688;28;20249;-88
2021/12/27 14:24:04;;;;;;;22.27;20.98;;;;;;;;;;5114813;28;20197;-87
2021/12/27 14:26:33;;;;;;;23.63;22.00;;;;;;;;;;5114830;28;20204;-87